McCarthy, Alaska
Current Conditions -  °F | °C
As of 11:53 PM on Tuesday 25 Nov 2014 (Local Time) from PAGK Reporting Station
Overcast Overcast  
Wind Chill:   Ceiling: 8000
Heat Index:   Visibility: 10mi
Dew Point: -1°   Wind: 0mph
Humidity: 80%   Direction: NA
Pressure: 30.33"   Gusts: NA
Location:  61.44°N, 142.91°W
Report Text: PAGK 260853Z AUTO 00000KT 10SM FEW047 OVC080 M16/M18 A3033 RMK AO2 SLP329 T11561183 411171217 53010 TSNO
Loading
Personal Weather Stations






























Interactive Weather Map New forecast layout! Learn more

10-Day Weather Forecast

Advertisements
Track Severe Weather on mobile